Caribou, Maine
Current Conditions -  °F | °C
As of 9:54 PM on Tuesday 25 Nov 2014 (Local Time) from KCAR Reporting Station
Overcast Overcast  
Wind Chill: 34°   Ceiling: 5000
Heat Index: 41°   Visibility: 10mi
Dew Point: 28°   Wind: 13mph
Humidity: 60%   Direction: 250°WSW
Pressure: 29.82"   Gusts: NA
Location:  46.86°N, 68.01°W
Report Text: KCAR 260254Z AUTO 25011KT 10SM OVC050 05/M02 A2982 RMK AO2 SLP104 T00501022 53008
Loading
Personal Weather Stations






























Interactive Weather Map New forecast layout! Learn more

10-Day Weather Forecast

Advertisements
Track Severe Weather on mobile